Terminal Aerodrome Forecast
Issued by NWS

Home | Current Version | Previous Version | Text Only | Print | Product List | Glossary On
Versions: 1 2 3 4 5 6 7 8 9 10 11 12 13 14 15 16 17 18 19 20 21 22 23 24 25 26 27 28 29
000
FTUS43 KDVN 311900 AAB
TAFCID
TAF AMD
KCID 311959Z 3120/0118 24008KT 1 1/2SM -DZ BR BKN004 OVC008
     FM312200 21006KT 3SM -RASN BR BKN008 OVC015
     FM010000 VRB04KT 1 1/2SM -SN BR OVC006
     FM010400 08010KT 1/2SM SN FG OVC003
     FM011200 06016G25KT 1SM -SN OVC007=

USA.gov is the U.S. government's official web portal to all federal, state and local government web resources and services.